createdAt,value
2022-09-28T00:01:26.841Z,100065.28
2022-09-28T00:04:00.506Z,100056.69
2022-09-28T00:06:31.138Z,100097.25
2022-09-28T00:08:59.816Z,100116.25
2022-09-28T00:11:28.814Z,100014.59
2022-09-28T00:14:04.515Z,100107.59
2022-09-28T00:16:37.593Z,100088.59
2022-09-28T00:19:07.146Z,100112.00
2022-09-28T00:21:38.867Z,100100.81
2022-09-28T00:24:17.857Z,100094.75
2022-09-28T00:26:55.336Z,100098.28
2022-09-28T00:29:30.150Z,100089.69
2022-09-28T00:32:03.684Z,100115.56
2022-09-28T00:34:38.375Z,100075.03
2022-09-28T00:37:15.041Z,100090.50
2022-09-28T00:39:45.466Z,100049.19
2022-09-28T00:42:23.082Z,100113.75
2022-09-28T00:44:52.679Z,100113.72
2022-09-28T00:47:32.047Z,100112.94
2022-09-28T00:50:15.627Z,100096.53
2022-09-28T00:52:47.652Z,100121.56
2022-09-28T00:55:26.928Z,100096.63
2022-09-28T00:57:59.007Z,100103.50
2022-09-28T01:00:28.530Z,100082.03
2022-09-28T01:02:59.284Z,100103.56
2022-09-28T01:05:29.550Z,100086.34
2022-09-28T01:07:59.338Z,100099.28
2022-09-28T01:10:30.086Z,100100.19
2022-09-28T01:13:00.033Z,100107.16
2022-09-28T01:15:31.952Z,100125.22
2022-09-28T01:18:23.631Z,100083.91
2022-09-28T01:21:06.040Z,100118.34
2022-09-28T01:23:40.835Z,100144.09
2022-09-28T01:26:39.890Z,100144.13
2022-09-28T01:29:20.780Z,100091.53
2022-09-28T01:31:57.521Z,100125.16
2022-09-28T01:34:31.775Z,100128.72
2022-09-28T01:37:05.301Z,100115.00
2022-09-28T01:39:42.628Z,100131.38
2022-09-28T01:42:22.043Z,100140.81
2022-09-28T01:44:53.888Z,100123.69
2022-09-28T01:47:25.117Z,100114.22
2022-09-28T01:50:02.227Z,100156.44
2022-09-28T01:52:41.373Z,100138.38
2022-09-28T01:55:20.781Z,100156.44
2022-09-28T01:58:34.206Z,100159.09
2022-09-28T02:01:14.786Z,100153.03
2022-09-28T02:03:56.812Z,100167.69
2022-09-28T02:06:37.021Z,100153.94
2022-09-28T02:09:17.861Z,100154.81
2022-09-28T02:11:54.183Z,100153.06
2022-09-28T02:14:24.077Z,100169.50
2022-09-28T02:16:55.327Z,100157.50
2022-09-28T02:19:31.940Z,100160.09
2022-09-28T02:22:06.726Z,100185.94
2022-09-28T02:24:51.950Z,100164.34
2022-09-28T02:27:52.175Z,100182.41
2022-09-28T02:30:21.487Z,100164.22
2022-09-28T02:32:55.665Z,100147.75
2022-09-28T02:35:25.288Z,100161.59
2022-09-28T02:37:55.897Z,100165.09
2022-09-28T02:40:30.116Z,100180.66
2022-09-28T02:43:23.526Z,100193.50
2022-09-28T02:46:08.278Z,100195.16
2022-09-28T02:49:20.908Z,100152.88
2022-09-28T02:52:23.269Z,100177.84
2022-09-28T02:55:20.252Z,100197.66
2022-09-28T02:58:36.998Z,100201.09
2022-09-28T03:01:16.462Z,100199.34
2022-09-28T03:04:22.283Z,100205.34
2022-09-28T03:07:08.736Z,100188.09
2022-09-28T03:10:19.551Z,100204.44
2022-09-28T03:12:49.991Z,100189.72
2022-09-28T03:15:25.801Z,100197.56
2022-09-28T03:17:56.717Z,100161.34
2022-09-28T03:20:27.356Z,100213.81
2022-09-28T03:23:22.749Z,100200.00
2022-09-28T03:25:45.082Z,100211.03
2022-09-28T03:28:16.348Z,100212.72
2022-09-28T03:30:45.031Z,100203.09
2022-09-28T03:33:13.718Z,100194.44
2022-09-28T03:35:43.171Z,100133.19
2022-09-28T03:38:11.950Z,100158.13
2022-09-28T03:40:40.984Z,100184.69
2022-09-28T03:43:09.583Z,100186.41
2022-09-28T03:45:38.449Z,100157.84
2022-09-28T03:48:06.905Z,100200.84
2022-09-28T03:50:35.645Z,100176.66
2022-09-28T03:53:06.587Z,100193.81
2022-09-28T03:55:35.147Z,100182.44
2022-09-28T03:58:03.918Z,100183.94
2022-09-28T04:00:33.159Z,100177.06
2022-09-28T04:03:01.806Z,100211.47
2022-09-28T04:05:30.457Z,100201.16
2022-09-28T04:07:59.500Z,100217.56
2022-09-28T04:10:28.286Z,100213.28
2022-09-28T04:13:00.051Z,100220.09
2022-09-28T04:15:28.816Z,100211.56
2022-09-28T04:17:57.116Z,100201.06
2022-09-28T04:20:48.768Z,100230.28
2022-09-28T04:23:18.386Z,100223.41
2022-09-28T04:25:52.886Z,100242.31
2022-09-28T04:28:39.907Z,100239.63
2022-09-28T04:31:13.995Z,100221.41
2022-09-28T04:33:43.089Z,100204.13
2022-09-28T04:36:12.182Z,100222.94
2022-09-28T04:38:52.914Z,100222.09
2022-09-28T04:41:24.851Z,100246.97
2022-09-28T04:43:53.713Z,100214.09
2022-09-28T04:46:22.463Z,100218.50
2022-09-28T04:49:01.077Z,100212.53
2022-09-28T04:51:46.864Z,100215.06
2022-09-28T04:54:15.298Z,100228.00
2022-09-28T04:56:44.033Z,100247.88
2022-09-28T04:59:14.365Z,100225.44
2022-09-28T05:01:44.231Z,100250.25
2022-09-28T05:04:34.264Z,100251.91
2022-09-28T05:07:27.536Z,100225.97
2022-09-28T05:09:56.676Z,100239.13
2022-09-28T05:12:25.220Z,100246.03
2022-09-28T05:14:53.909Z,100232.19
2022-09-28T05:17:22.529Z,100230.50
2022-09-28T05:20:09.966Z,100234.88
2022-09-28T05:22:38.474Z,100239.28
2022-09-28T05:25:09.666Z,100248.69
2022-09-28T05:27:56.766Z,100227.06
2022-09-28T05:30:39.020Z,100240.84
2022-09-28T05:33:35.481Z,100228.69
2022-09-28T05:36:11.871Z,100232.97
2022-09-28T05:38:42.840Z,100254.31
2022-09-28T05:41:11.372Z,100226.75
2022-09-28T05:43:40.562Z,100242.97
2022-09-28T05:46:09.170Z,100258.47
2022-09-28T05:48:41.084Z,100246.31
2022-09-28T05:51:10.909Z,100217.69
2022-09-28T05:53:39.509Z,100251.22
2022-09-28T05:56:08.167Z,100235.91
2022-09-28T05:58:39.746Z,100254.94
2022-09-28T06:01:10.206Z,100272.19
2022-09-28T06:03:38.942Z,100259.28
2022-09-28T06:06:08.342Z,100213.47
2022-09-28T06:08:37.201Z,100254.81
2022-09-28T06:11:22.277Z,100266.00
2022-09-28T06:13:56.197Z,100229.63
2022-09-28T06:16:27.717Z,100256.09
2022-09-28T06:18:56.526Z,100259.53
2022-09-28T06:21:49.558Z,100249.34
2022-09-28T06:24:18.464Z,100257.03
2022-09-28T06:26:47.709Z,100227.13
2022-09-28T06:29:20.065Z,100277.13
2022-09-28T06:31:48.850Z,100241.19
2022-09-28T06:34:19.799Z,100259.44
2022-09-28T06:36:49.675Z,100225.13
2022-09-28T06:39:18.797Z,100274.25
2022-09-28T06:41:47.508Z,100246.81
2022-09-28T06:44:18.995Z,100212.44
2022-09-28T06:47:06.221Z,100285.88
2022-09-28T06:49:57.728Z,100278.16
2022-09-28T06:52:46.598Z,100277.28
2022-09-28T06:55:35.387Z,100236.84
2022-09-28T06:58:06.842Z,100286.84
2022-09-28T07:00:36.946Z,100261.13
2022-09-28T07:03:12.675Z,100185.47
2022-09-28T07:05:59.627Z,100269.16
2022-09-28T07:08:59.296Z,100284.09
2022-09-28T07:12:05.757Z,100281.75
2022-09-28T07:14:48.589Z,100272.34
2022-09-28T07:17:18.457Z,100250.13
2022-09-28T07:19:47.200Z,100262.25
2022-09-28T07:22:18.762Z,100283.00
2022-09-28T07:24:49.504Z,100273.41
2022-09-28T07:27:40.321Z,100287.16
2022-09-28T07:30:38.447Z,100264.69
2022-09-28T07:33:20.906Z,100293.84
2022-09-28T07:35:56.618Z,100291.09
2022-09-28T07:38:28.850Z,100260.81
2022-09-28T07:41:13.314Z,100258.13
2022-09-28T07:43:48.484Z,100215.81
2022-09-28T07:46:18.315Z,100265.72
2022-09-28T07:48:56.922Z,100267.34
2022-09-28T07:51:37.090Z,100284.63
2022-09-28T07:54:23.781Z,100253.66
2022-09-28T07:57:10.903Z,100256.19
2022-09-28T07:59:56.780Z,100219.91
2022-09-28T08:02:45.355Z,100262.09
2022-09-28T08:05:18.737Z,100262.00
2022-09-28T08:07:47.878Z,100276.69
2022-09-28T08:10:17.994Z,100225.06
2022-09-28T08:13:08.847Z,100221.50
2022-09-28T08:15:56.143Z,100264.47
2022-09-28T08:18:51.286Z,100253.91
2022-09-28T08:21:38.242Z,100257.16
2022-09-28T08:24:07.193Z,100257.94
2022-09-28T08:26:35.777Z,100255.22
2022-09-28T08:29:04.878Z,100258.78
2022-09-28T08:32:09.896Z,100274.38
2022-09-28T08:35:00.949Z,100272.84
2022-09-28T08:37:55.479Z,100227.53
2022-09-28T08:41:19.092Z,100298.44
2022-09-28T08:44:25.632Z,100292.66
2022-09-28T08:47:45.108Z,100283.34
2022-09-28T08:51:00.457Z,100268.97
2022-09-28T08:54:29.994Z,100307.81
2022-09-28T08:57:08.050Z,100322.78
2022-09-28T08:59:48.913Z,100288.56
2022-09-28T09:02:35.239Z,100266.31
2022-09-28T09:05:25.390Z,100321.47
2022-09-28T09:08:13.683Z,100320.59
2022-09-28T09:11:03.412Z,100324.03
2022-09-28T09:14:17.320Z,100284.31
2022-09-28T09:17:01.160Z,100318.69
2022-09-28T09:19:59.966Z,100293.66
2022-09-28T09:23:13.076Z,100328.03
2022-09-28T09:25:53.228Z,100329.63
2022-09-28T09:29:23.952Z,100314.78
2022-09-28T09:32:16.311Z,100343.22
2022-09-28T09:35:13.988Z,100240.34
2022-09-28T09:38:34.762Z,100330.53
2022-09-28T09:41:36.264Z,100318.47
2022-09-28T09:44:48.673Z,100309.84
2022-09-28T09:48:07.781Z,100341.84
2022-09-28T09:51:02.800Z,100266.69
2022-09-28T09:53:44.852Z,100315.63
2022-09-28T09:56:29.421Z,100307.88
2022-09-28T09:59:38.929Z,100305.13
2022-09-28T10:02:28.478Z,100316.28
2022-09-28T10:05:28.363Z,100330.00
2022-09-28T10:08:05.538Z,100345.53
2022-09-28T10:10:43.805Z,100342.25
2022-09-28T10:13:14.302Z,100329.34
2022-09-28T10:15:48.289Z,100283.84
2022-09-28T10:18:26.956Z,100317.59
2022-09-28T10:21:16.011Z,100339.94
2022-09-28T10:24:03.341Z,100296.97
2022-09-28T10:26:46.640Z,100300.25
2022-09-28T10:29:26.889Z,100312.28
2022-09-28T10:31:56.354Z,100314.94
2022-09-28T10:34:32.376Z,100322.03
2022-09-28T10:37:12.090Z,100315.78
2022-09-28T10:39:59.967Z,100280.59
2022-09-28T10:42:37.155Z,100311.78
2022-09-28T10:45:24.596Z,100316.38
2022-09-28T10:47:53.250Z,100348.31
2022-09-28T10:50:26.505Z,100351.84
2022-09-28T10:53:15.653Z,100329.50
2022-09-28T10:56:27.844Z,100334.94
2022-09-28T10:59:29.996Z,100345.50
2022-09-28T11:02:30.391Z,100369.78
2022-09-28T11:05:08.463Z,100368.97
2022-09-28T11:07:48.997Z,100313.88
2022-09-28T11:10:26.835Z,100372.53
2022-09-28T11:13:00.722Z,100351.06
2022-09-28T11:15:34.434Z,100355.47
2022-09-28T11:18:32.147Z,100380.66
2022-09-28T11:21:14.888Z,100362.63
2022-09-28T11:24:27.684Z,100382.59
2022-09-28T11:27:02.806Z,100360.25
2022-09-28T11:29:52.119Z,100357.66
2022-09-28T11:32:46.462Z,100357.66
2022-09-28T11:35:32.679Z,100365.38
2022-09-28T11:38:54.455Z,100392.91
2022-09-28T11:42:04.598Z,100379.06
2022-09-28T11:44:47.130Z,100378.13
2022-09-28T11:47:48.684Z,100376.38
2022-09-28T11:50:24.380Z,100382.44
2022-09-28T11:53:33.436Z,100401.44
2022-09-28T11:56:41.401Z,100411.00
2022-09-28T11:59:23.402Z,100373.84
2022-09-28T12:01:58.622Z,100382.47
2022-09-28T12:04:47.827Z,100384.19
2022-09-28T12:08:05.081Z,100397.28
2022-09-28T12:11:05.362Z,100394.78
2022-09-28T12:14:00.914Z,100387.91
2022-09-28T12:17:04.112Z,100355.16
2022-09-28T12:19:31.027Z,100423.38
2022-09-28T12:22:03.113Z,100426.97
2022-09-28T12:24:40.415Z,100395.88
2022-09-28T12:27:21.657Z,100409.81
2022-09-28T12:30:10.028Z,100438.38
2022-09-28T12:32:57.548Z,100426.38
2022-09-28T12:35:41.014Z,100436.72
2022-09-28T12:39:08.365Z,100404.88
2022-09-28T12:42:16.785Z,100442.06
2022-09-28T12:45:06.319Z,100451.63
2022-09-28T12:47:54.709Z,100452.56
2022-09-28T12:50:39.333Z,100454.28
2022-09-28T12:53:42.369Z,100456.09
2022-09-28T12:57:03.912Z,100404.28
2022-09-28T12:59:38.165Z,100442.19
2022-09-28T13:02:42.324Z,100466.44
2022-09-28T13:05:45.021Z,100468.25
2022-09-28T13:08:31.615Z,100434.56
2022-09-28T13:11:33.969Z,100473.56
2022-09-28T13:14:24.260Z,100475.34
2022-09-28T13:17:12.032Z,100474.56
2022-09-28T13:19:49.654Z,100475.38
2022-09-28T13:22:29.509Z,100456.41
2022-09-28T13:25:05.439Z,100462.47
2022-09-28T13:27:38.410Z,100465.03
2022-09-28T13:30:08.709Z,100450.44
2022-09-28T13:32:39.760Z,100452.97
2022-09-28T13:35:21.775Z,100463.41
2022-09-28T13:38:19.330Z,100484.13
2022-09-28T13:41:10.157Z,100462.53
2022-09-28T13:44:01.825Z,100489.34
2022-09-28T13:46:48.402Z,100492.88
2022-09-28T13:49:46.386Z,100460.09
2022-09-28T13:52:24.823Z,100463.59
2022-09-28T13:55:07.638Z,100507.72
2022-09-28T13:57:47.089Z,100512.97
2022-09-28T14:00:46.759Z,100488.84
2022-09-28T14:03:22.044Z,100510.41
2022-09-28T14:06:30.385Z,100452.53
2022-09-28T14:09:27.788Z,100491.41
2022-09-28T14:11:59.857Z,100450.78
2022-09-28T14:14:47.201Z,100507.78
2022-09-28T14:17:24.842Z,100516.47
2022-09-28T14:20:05.305Z,100476.72
2022-09-28T14:23:01.677Z,100488.75
2022-09-28T14:25:36.928Z,100478.41
2022-09-28T14:28:27.279Z,100513.81
2022-09-28T14:30:59.333Z,100509.50
2022-09-28T14:33:30.382Z,100449.81
2022-09-28T14:36:41.464Z,100503.38
2022-09-28T14:39:51.381Z,100456.78
2022-09-28T14:42:25.101Z,100502.56
2022-09-28T14:45:07.528Z,100522.47
2022-09-28T14:47:41.489Z,100525.06
2022-09-28T14:50:25.388Z,100499.97
2022-09-28T14:53:12.961Z,100500.84
2022-09-28T14:55:52.695Z,100505.16
2022-09-28T14:58:24.590Z,100498.25
2022-09-28T15:01:02.046Z,100517.25
2022-09-28T15:03:33.970Z,100509.47
2022-09-28T15:06:02.595Z,100500.84
2022-09-28T15:08:41.396Z,100506.03
2022-09-28T15:11:22.497Z,100510.38
2022-09-28T15:13:56.564Z,100522.44
2022-09-28T15:16:25.659Z,100505.19
2022-09-28T15:19:20.356Z,100526.75
2022-09-28T15:21:52.061Z,100512.06
2022-09-28T15:24:32.452Z,100534.56
2022-09-28T15:27:02.654Z,100536.28
2022-09-28T15:29:34.201Z,100518.97
2022-09-28T15:32:03.003Z,100527.63
2022-09-28T15:34:53.335Z,100511.22
2022-09-28T15:37:29.427Z,100513.84
2022-09-28T15:40:00.137Z,100508.63
2022-09-28T15:42:29.226Z,100515.56
2022-09-28T15:45:08.921Z,100498.25
2022-09-28T15:47:39.449Z,100495.75
2022-09-28T15:50:31.068Z,100523.41
2022-09-28T15:53:05.720Z,100492.34
2022-09-28T15:55:40.143Z,100528.69
2022-09-28T15:58:22.199Z,100530.44
2022-09-28T16:01:12.815Z,100500.19
2022-09-28T16:03:43.609Z,100513.19
2022-09-28T16:06:12.476Z,100503.72
2022-09-28T16:08:46.387Z,100492.44
2022-09-28T16:11:28.769Z,100483.88
2022-09-28T16:14:09.810Z,100530.50
2022-09-28T16:16:46.816Z,100486.41
2022-09-28T16:19:33.161Z,100539.16
2022-09-28T16:22:07.343Z,100526.19
2022-09-28T16:24:39.198Z,100513.25
2022-09-28T16:27:23.015Z,100528.81
2022-09-28T16:30:22.576Z,100506.34
2022-09-28T16:33:08.901Z,100528.81
2022-09-28T16:35:43.809Z,100544.41
2022-09-28T16:38:16.468Z,100540.13
2022-09-28T16:40:48.639Z,100526.28
2022-09-28T16:43:37.354Z,100532.38
2022-09-28T16:46:12.686Z,100522.00
2022-09-28T16:48:51.813Z,100536.69
2022-09-28T16:51:23.053Z,100520.28
2022-09-28T16:54:10.125Z,100465.81
2022-09-28T16:56:39.000Z,100455.50
2022-09-28T16:59:13.750Z,100538.47
2022-09-28T17:01:44.503Z,100516.84
2022-09-28T17:04:13.479Z,100535.88
2022-09-28T17:06:44.061Z,100525.50
2022-09-28T17:09:15.842Z,100502.22
2022-09-28T17:11:45.267Z,100524.69
2022-09-28T17:14:14.894Z,100502.22
2022-09-28T17:17:06.483Z,100541.13
2022-09-28T17:19:33.008Z,100525.56
2022-09-28T17:22:01.697Z,100523.03
2022-09-28T17:24:30.305Z,100496.19
2022-09-28T17:27:01.490Z,100396.81
2022-09-28T17:29:31.206Z,100554.19
2022-09-28T17:31:59.970Z,100561.13
2022-09-28T17:34:28.886Z,100537.75
2022-09-28T17:36:57.787Z,100521.34
2022-09-28T17:39:26.627Z,100537.75
2022-09-28T17:41:55.146Z,100557.66
2022-09-28T17:44:23.991Z,100538.66
2022-09-28T17:46:53.863Z,100535.25
2022-09-28T17:49:22.525Z,100544.75
2022-09-28T17:51:51.091Z,100524.84
2022-09-28T17:54:21.893Z,100517.94
2022-09-28T17:56:50.774Z,100549.97
2022-09-28T17:59:19.971Z,100546.50
2022-09-28T18:01:48.881Z,100535.28
2022-09-28T18:04:47.156Z,100523.16
2022-09-28T18:07:07.106Z,100545.66
2022-09-28T18:09:35.666Z,100541.34
2022-09-28T18:12:06.746Z,100546.53
2022-09-28T18:14:39.895Z,100548.31
2022-09-28T18:17:08.386Z,100566.47
2022-09-28T18:19:37.228Z,100550.03
2022-09-28T18:22:05.805Z,100554.38
2022-09-28T18:24:34.324Z,100564.75
2022-09-28T18:27:05.486Z,100563.03
2022-09-28T18:29:33.986Z,100539.66
2022-09-28T18:32:03.193Z,100564.78
2022-09-28T18:34:32.045Z,100563.94
2022-09-28T18:37:00.546Z,100574.28
2022-09-28T18:39:29.504Z,100518.91
2022-09-28T18:41:58.931Z,100552.66
2022-09-28T18:44:27.783Z,100535.34
2022-09-28T18:46:56.507Z,100499.00
2022-09-28T18:49:25.728Z,100571.72
2022-09-28T18:51:54.248Z,100523.25
2022-09-28T18:54:24.198Z,100578.66
2022-09-28T18:56:57.154Z,100533.66
2022-09-28T18:59:29.317Z,100557.88
2022-09-28T19:01:58.377Z,100559.63
2022-09-28T19:04:27.088Z,100550.09
2022-09-28T19:06:56.144Z,100568.28
2022-09-28T19:09:25.718Z,100575.22
2022-09-28T19:11:54.313Z,100560.50
2022-09-28T19:14:22.918Z,100535.38
2022-09-28T19:16:51.708Z,100529.31
2022-09-28T19:19:21.369Z,100574.34
2022-09-28T19:21:50.071Z,100542.34
2022-09-28T19:24:19.657Z,100551.81
2022-09-28T19:26:49.222Z,100568.28
2022-09-28T19:29:17.672Z,100576.97
2022-09-28T19:31:46.508Z,100552.72
2022-09-28T19:34:15.194Z,100583.00
2022-09-28T19:36:46.272Z,100602.94
2022-09-28T19:39:16.077Z,100568.31
2022-09-28T19:41:52.110Z,100594.28
2022-09-28T19:44:25.727Z,100576.94
2022-09-28T19:47:01.750Z,100598.59
2022-09-28T19:49:45.448Z,100580.41
2022-09-28T19:52:17.722Z,100584.75
2022-09-28T19:54:57.465Z,100605.53
2022-09-28T19:57:28.815Z,100589.09
2022-09-28T20:00:02.113Z,100573.50
2022-09-28T20:02:34.522Z,100577.81
2022-09-28T20:05:04.015Z,100589.94
2022-09-28T20:07:34.017Z,100612.47
2022-09-28T20:10:02.784Z,100569.16
2022-09-28T20:12:31.378Z,100602.09
2022-09-28T20:15:00.086Z,100593.41
2022-09-28T20:17:28.629Z,100576.06
2022-09-28T20:19:58.268Z,100589.06
2022-09-28T20:22:26.760Z,100550.97
2022-09-28T20:24:55.157Z,100612.44
2022-09-28T20:27:26.344Z,100599.47
2022-09-28T20:29:55.242Z,100584.72
2022-09-28T20:32:23.909Z,100596.84
2022-09-28T20:34:52.563Z,100556.13
2022-09-28T20:37:21.243Z,100481.66
2022-09-28T20:39:49.645Z,100591.63
2022-09-28T20:42:18.185Z,100615.03
2022-09-28T20:44:46.685Z,100637.53
2022-09-28T20:47:15.223Z,100618.47
2022-09-28T20:49:44.987Z,100599.41
2022-09-28T20:52:13.652Z,100624.53
2022-09-28T20:54:42.226Z,100625.41
2022-09-28T20:57:20.853Z,100632.34
2022-09-28T20:59:54.334Z,100612.41
2022-09-28T21:02:23.519Z,100604.59
2022-09-28T21:04:52.283Z,100613.25
2022-09-28T21:07:21.086Z,100611.53
2022-09-28T21:09:49.544Z,100603.75
2022-09-28T21:12:18.955Z,100640.13
2022-09-28T21:14:47.409Z,100582.91
2022-09-28T21:17:16.178Z,100639.22
2022-09-28T21:19:44.869Z,100644.41
2022-09-28T21:22:13.489Z,100570.75
2022-09-28T21:24:42.112Z,100570.78
2022-09-28T21:27:10.649Z,100620.16
2022-09-28T21:29:39.189Z,100626.25
2022-09-28T21:32:08.743Z,100624.47
2022-09-28T21:34:37.624Z,100619.28
2022-09-28T21:37:06.727Z,100624.50
2022-09-28T21:39:35.313Z,100627.06
2022-09-28T21:42:03.953Z,100620.16
2022-09-28T21:44:32.701Z,100597.59
2022-09-28T21:47:01.173Z,100603.63
2022-09-28T21:49:29.977Z,100642.63
2022-09-28T21:51:58.623Z,100651.31
2022-09-28T21:54:29.680Z,100629.63
2022-09-28T21:56:58.448Z,100661.69
2022-09-28T21:59:26.982Z,100666.88
2022-09-28T22:01:55.659Z,100666.84
2022-09-28T22:04:24.286Z,100658.22
2022-09-28T22:06:53.075Z,100659.94
2022-09-28T22:09:21.574Z,100646.06
2022-09-28T22:11:50.381Z,100643.47
2022-09-28T22:14:19.058Z,100648.66
2022-09-28T22:16:47.754Z,100678.09
2022-09-28T22:19:16.443Z,100659.03
2022-09-28T22:21:45.123Z,100659.88
2022-09-28T22:24:13.982Z,100685.00
2022-09-28T22:26:42.862Z,100665.06
2022-09-28T22:29:11.813Z,100688.44
2022-09-28T22:31:42.358Z,100683.25
2022-09-28T22:34:11.078Z,100692.75
2022-09-28T22:36:39.486Z,100692.75
2022-09-28T22:39:08.213Z,100680.59
2022-09-28T22:41:36.758Z,100678.00
2022-09-28T22:44:05.632Z,100691.00
2022-09-28T22:46:34.309Z,100704.91
2022-09-28T22:49:03.018Z,100671.06
2022-09-28T22:51:32.233Z,100697.13
2022-09-28T22:54:01.958Z,100722.31
2022-09-28T22:56:30.734Z,100723.16
2022-09-28T22:59:03.014Z,100718.84
2022-09-28T23:01:31.735Z,100725.81
2022-09-28T23:04:00.617Z,100741.44
2022-09-28T23:06:33.855Z,100737.94
2022-09-28T23:09:02.727Z,100738.78
2022-09-28T23:11:31.351Z,100751.78
2022-09-28T23:14:01.236Z,100731.81
2022-09-28T23:16:30.850Z,100747.41
2022-09-28T23:18:59.729Z,100743.03
2022-09-28T23:21:29.121Z,100756.91
2022-09-28T23:24:02.326Z,100737.81
2022-09-28T23:26:33.216Z,100742.13
2022-09-28T23:29:01.914Z,100730.81
2022-09-28T23:31:32.475Z,100704.75
2022-09-28T23:34:03.075Z,100775.88
2022-09-28T23:36:32.835Z,100729.88
2022-09-28T23:39:01.611Z,100757.63
2022-09-28T23:41:30.487Z,100789.69
2022-09-28T23:43:59.028Z,100770.59
2022-09-28T23:46:28.066Z,100770.56
2022-09-28T23:48:56.930Z,100766.22
2022-09-28T23:51:25.694Z,100790.53
2022-09-28T23:53:54.557Z,100772.31
2022-09-28T23:56:24.026Z,100757.53
2022-09-28T23:58:52.549Z,100759.28
